Time;durP1;ratioP1;P1;durP2;ratioP2;P2;SDS_P1;SDS_P2;PMS_P1;PMS_P2;Temp;Humidity;BMP_temperature;BMP_pressure;BME280_temperature;BME280_humidity;BME280_pressure;Samples;Min_cycle;Max_cycle;Signal;HPM_P1;HPM_P2
2022/03/01 00:02:20;;;;;;;15.23;6.97;;;;;;;-1.61;74.13;100330.53;5089018;28;20460;-79
2022/03/01 00:04:46;;;;;;;17.33;7.23;;;;;;;-1.73;75.23;100334.69;5089323;28;20507;-78
2022/03/01 00:07:13;;;;;;;20.47;6.63;;;;;;;-1.79;75.06;100348.31;5090316;28;20054;-79
2022/03/01 00:09:40;;;;;;;12.90;6.90;;;;;;;-1.90;76.28;100338.19;5083746;28;20495;-79
2022/03/01 00:12:08;;;;;;;17.03;6.90;;;;;;;-1.89;75.74;100333.72;5093893;28;20546;-79
2022/03/01 00:14:34;;;;;;;14.10;7.23;;;;;;;-1.89;76.15;100344.38;5086115;28;20407;-78
2022/03/01 00:17:01;;;;;;;14.20;6.17;;;;;;;-1.92;77.05;100342.72;5092087;28;20622;-78
2022/03/01 00:19:29;;;;;;;13.57;7.10;;;;;;;-2.11;76.52;100324.13;5093380;28;20044;-78
2022/03/01 00:21:56;;;;;;;18.17;7.70;;;;;;;-2.04;76.73;100333.53;5093531;28;20063;-79
2022/03/01 00:24:23;;;;;;;12.00;6.37;;;;;;;-1.98;77.83;100351.03;5092287;28;20430;-78
2022/03/01 00:26:49;;;;;;;13.07;6.00;;;;;;;-2.07;78.38;100331.03;5093694;28;20074;-79
2022/03/01 00:29:16;;;;;;;20.37;7.40;;;;;;;-2.02;77.22;100322.81;5081517;28;20050;-78
2022/03/01 00:31:43;;;;;;;16.17;7.07;;;;;;;-1.83;75.92;100344.06;5089403;28;20048;-78
2022/03/01 00:34:10;;;;;;;16.00;6.53;;;;;;;-1.94;75.57;100325.97;5084281;28;20040;-78
2022/03/01 00:36:38;;;;;;;14.23;6.70;;;;;;;-1.80;76.30;100346.59;5093727;28;20055;-78
2022/03/01 00:39:05;;;;;;;13.30;6.57;;;;;;;-1.81;75.91;100340.41;5092514;28;20508;-78
2022/03/01 00:41:31;;;;;;;21.73;8.17;;;;;;;-1.97;76.39;100326.13;5092821;28;20048;-78
2022/03/01 00:43:58;;;;;;;18.73;7.33;;;;;;;-2.11;77.84;100328.59;5092912;28;20385;-78
2022/03/01 00:46:26;;;;;;;17.73;7.27;;;;;;;-2.13;79.14;100348.16;5087534;28;20063;-78
2022/03/01 00:48:53;;;;;;;15.23;6.33;;;;;;;-2.18;79.09;100352.88;5073961;28;20060;-78
2022/03/01 00:51:20;;;;;;;12.27;7.17;;;;;;;-2.38;79.79;100318.34;5082210;28;20052;-78
2022/03/01 00:53:47;;;;;;;14.77;6.67;;;;;;;-2.38;80.53;100329.88;5072364;28;20411;-78
2022/03/01 00:56:14;;;;;;;15.53;6.73;;;;;;;-2.31;80.25;100343.75;5071385;28;20057;-79
2022/03/01 00:58:41;;;;;;;17.83;6.90;;;;;;;-2.46;80.92;100342.69;5084656;28;20047;-79
2022/03/01 01:01:07;;;;;;;16.20;7.23;;;;;;;-2.64;81.83;100319.59;5086972;28;20083;-79
2022/03/01 01:03:34;;;;;;;12.30;6.50;;;;;;;-2.64;81.79;100327.59;5085732;28;20131;-79
2022/03/01 01:06:00;;;;;;;15.87;6.67;;;;;;;-2.64;81.93;100333.75;5090789;28;20052;-79
2022/03/01 01:08:27;;;;;;;15.30;7.33;;;;;;;-2.64;82.48;100331.09;5092620;28;20048;-78
2022/03/01 01:10:55;;;;;;;17.30;7.90;;;;;;;-2.68;82.70;100318.84;5092493;28;20059;-78
2022/03/01 01:13:22;;;;;;;17.93;6.93;;;;;;;-2.62;82.90;100341.66;5092680;28;20536;-78
2022/03/01 01:15:49;;;;;;;16.60;7.90;;;;;;;-2.78;82.76;100318.44;5092885;28;20069;-79
2022/03/01 01:18:15;;;;;;;24.90;7.30;;;;;;;-2.71;82.68;100327.00;5092078;28;20056;-79
2022/03/01 01:20:42;;;;;;;18.73;6.70;;;;;;;-2.98;83.14;100295.44;5088418;28;20048;-78
2022/03/01 01:23:08;;;;;;;16.03;7.00;;;;;;;-2.99;84.42;100299.00;5086123;28;20048;-78
2022/03/01 01:25:35;;;;;;;14.80;6.70;;;;;;;-2.88;84.78;100322.47;5092275;28;20553;-78
2022/03/01 01:28:03;;;;;;;13.23;6.13;;;;;;;-2.94;84.14;100302.31;5092312;28;20052;-79
2022/03/01 01:30:32;;;;;;;14.03;6.50;;;;;;;-2.96;86.75;100298.03;5092844;28;20040;-79
2022/03/01 01:32:59;;;;;;;18.33;6.60;;;;;;;-2.90;86.19;100311.03;5087583;28;20051;-79
2022/03/01 01:35:28;;;;;;;16.27;7.07;;;;;;;-2.99;87.64;100292.84;5091612;28;20067;-79
2022/03/01 01:37:55;;;;;;;17.90;6.93;;;;;;;-3.13;87.65;100281.03;5087838;28;20064;-78
2022/03/01 01:40:24;;;;;;;14.47;6.80;;;;;;;-3.15;87.96;100279.38;5088030;28;20047;-78
2022/03/01 01:42:53;;;;;;;15.77;6.90;;;;;;;-3.10;87.63;100302.16;5092440;28;20048;-78
2022/03/01 01:45:22;;;;;;;18.98;7.40;;;;;;;-3.19;87.38;100278.66;5079931;28;20048;-79
2022/03/01 01:47:50;;;;;;;16.17;7.13;;;;;;;-3.23;87.21;100293.03;5091330;28;20052;-78
2022/03/01 01:50:17;;;;;;;19.20;8.07;;;;;;;-3.11;87.83;100319.06;5092334;28;20411;-78
2022/03/01 01:52:46;;;;;;;18.33;7.83;;;;;;;-3.24;87.92;100308.13;5085328;28;20399;-77
2022/03/01 01:55:14;;;;;;;16.90;6.82;;;;;;;-3.22;87.23;100311.56;5083591;28;20050;-77
2022/03/01 01:57:41;;;;;;;14.00;6.80;;;;;;;-3.24;87.71;100305.47;5092159;28;20054;-77
2022/03/01 02:00:09;;;;;;;13.10;6.40;;;;;;;-3.33;87.11;100291.69;5089785;28;20040;-78
2022/03/01 02:02:38;;;;;;;14.73;7.53;;;;;;;-3.36;87.46;100290.03;5091856;28;20059;-78
2022/03/01 02:05:05;;;;;;;15.03;6.70;;;;;;;-3.28;87.30;100293.22;5074733;28;20403;-78
2022/03/01 02:07:32;;;;;;;11.90;6.03;;;;;;;-3.25;86.51;100308.16;5084643;28;20040;-78
2022/03/01 02:09:58;;;;;;;19.90;7.10;;;;;;;-3.31;87.24;100300.47;5089653;28;20048;-78
2022/03/01 02:12:25;;;;;;;16.27;7.03;;;;;;;-3.31;87.12;100304.00;5088599;28;20075;-78
2022/03/01 02:14:51;;;;;;;13.47;6.30;;;;;;;-3.35;86.75;100275.81;5087950;28;20122;-78
2022/03/01 02:17:19;;;;;;;20.10;6.23;;;;;;;-3.33;87.65;100294.38;5083962;28;20056;-78
2022/03/01 02:19:49;;;;;;;18.33;6.80;;;;;;;-3.36;88.10;100294.50;5080931;28;20076;-78
2022/03/01 02:22:18;;;;;;;15.53;7.13;;;;;;;-3.34;87.92;100303.25;5075190;28;20048;-78
2022/03/01 02:24:46;;;;;;;16.33;7.63;;;;;;;-3.40;88.39;100296.44;5082754;28;20054;-78
2022/03/01 02:27:13;;;;;;;14.00;6.87;;;;;;;-3.38;88.45;100307.88;5083872;28;20608;-78
2022/03/01 02:29:40;;;;;;;18.23;7.50;;;;;;;-3.53;88.82;100280.16;5089910;28;20071;-78
2022/03/01 02:32:09;;;;;;;15.87;6.87;;;;;;;-3.52;88.99;100286.31;5080622;28;20056;-78
2022/03/01 02:34:37;;;;;;;14.57;7.43;;;;;;;-3.43;88.30;100297.44;5084071;28;20051;-78
2022/03/01 02:37:04;;;;;;;14.27;6.60;;;;;;;-3.48;88.61;100304.72;5087914;28;20052;-78
2022/03/01 02:39:32;;;;;;;15.33;7.17;;;;;;;-3.41;88.27;100302.69;5085044;28;20126;-78
2022/03/01 02:42:02;;;;;;;15.47;6.13;;;;;;;-3.56;87.00;100278.50;5090653;28;20067;-78
2022/03/01 02:44:32;;;;;;;16.80;6.87;;;;;;;-3.53;87.32;100285.47;5092727;28;20395;-77
2022/03/01 02:46:59;;;;;;;14.82;6.32;;;;;;;-3.58;86.75;100277.72;5098631;28;20052;-78
2022/03/01 02:49:27;;;;;;;14.83;7.17;;;;;;;-3.53;87.30;100313.88;5092858;28;20234;-78
2022/03/01 02:51:54;;;;;;;12.03;6.03;;;;;;;-3.66;90.04;100297.56;5093025;28;20059;-78
2022/03/01 02:54:22;;;;;;;15.87;6.93;;;;;;;-3.63;90.45;100306.28;5096777;28;20131;-78
2022/03/01 02:56:50;;;;;;;16.63;6.60;;;;;;;-3.65;91.20;100309.94;5084251;28;20052;-78
2022/03/01 02:59:18;;;;;;;14.33;6.47;;;;;;;-3.67;89.13;100304.69;5090465;28;20164;-78
2022/03/01 03:01:44;;;;;;;17.73;7.10;;;;;;;-3.85;89.06;100287.75;5092781;28;20071;-78
2022/03/01 03:04:11;;;;;;;16.03;6.37;;;;;;;-3.81;92.03;100294.66;5092151;28;20428;-77
2022/03/01 03:06:37;;;;;;;16.90;6.33;;;;;;;-3.89;92.71;100295.91;5072642;28;20048;-79
2022/03/01 03:09:04;;;;;;;19.23;7.50;;;;;;;-4.05;92.37;100277.97;5087628;28;20044;-78
2022/03/01 03:11:30;;;;;;;13.00;6.07;;;;;;;-4.03;93.11;100289.38;5090669;28;20135;-78
2022/03/01 03:13:58;;;;;;;14.43;6.33;;;;;;;-4.06;93.94;100273.59;5091607;28;20044;-78
2022/03/01 03:16:27;;;;;;;18.20;6.57;;;;;;;-3.91;91.06;100267.59;5092706;28;20052;-78
2022/03/01 03:18:53;;;;;;;11.63;5.63;;;;;;;-3.65;88.26;100278.03;5092336;28;20139;-78
2022/03/01 03:21:20;;;;;;;17.40;6.80;;;;;;;-3.52;87.72;100287.22;5092405;28;20073;-78
2022/03/01 03:23:47;;;;;;;13.30;6.13;;;;;;;-3.53;87.64;100295.25;5095583;28;20098;-78
2022/03/01 03:26:13;;;;;;;17.53;6.23;;;;;;;-3.65;89.92;100284.22;5092495;28;20048;-78
2022/03/01 03:28:40;;;;;;;16.57;6.70;;;;;;;-3.65;89.45;100289.53;5091960;28;20040;-78
2022/03/01 03:31:08;;;;;;;15.77;6.80;;;;;;;-3.71;90.38;100287.16;5081229;28;20049;-78
2022/03/01 03:33:34;;;;;;;12.50;6.07;;;;;;;-3.76;89.19;100278.53;5096871;28;20059;-78
2022/03/01 03:36:01;;;;;;;15.33;7.27;;;;;;;-3.78;88.90;100277.69;5092642;28;20048;-78
2022/03/01 03:39:03;;;;;;;13.40;6.37;;;;;;;-3.67;89.40;100309.13;5091068;28;20055;-78
2022/03/01 03:41:29;;;;;;;16.07;6.57;;;;;;;-3.85;90.06;100298.38;5084064;28;20130;-78
2022/03/01 03:43:56;;;;;;;13.93;6.57;;;;;;;-4.01;90.90;100282.22;5091443;28;20415;-78
2022/03/01 03:46:24;;;;;;;14.83;6.67;;;;;;;-3.87;91.22;100297.56;5095088;28;20051;-78
2022/03/01 03:48:52;;;;;;;13.97;6.27;;;;;;;-3.85;90.90;100301.03;5093813;28;20040;-77
2022/03/01 03:51:18;;;;;;;14.90;6.63;;;;;;;-3.89;90.31;100285.28;5093179;28;20040;-77
2022/03/01 03:53:45;;;;;;;12.93;6.40;;;;;;;-3.54;87.88;100301.50;5092918;28;20040;-77
2022/03/01 03:56:12;;;;;;;15.17;5.97;;;;;;;-3.49;86.18;100280.88;5088411;28;20407;-77
2022/03/01 03:58:38;;;;;;;10.70;5.23;;;;;;;-3.47;84.66;100257.75;5095975;28;20052;-77
2022/03/01 04:01:05;;;;;;;18.77;7.07;;;;;;;-3.27;84.45;100283.44;5095986;28;20056;-77
2022/03/01 04:03:33;;;;;;;14.30;5.47;;;;;;;-3.28;83.84;100256.00;5096896;28;20044;-77
2022/03/01 04:06:00;;;;;;;14.37;6.17;;;;;;;-3.18;84.56;100288.34;5095898;28;20055;-77
2022/03/01 04:08:27;;;;;;;11.30;5.50;;;;;;;-3.28;83.48;100256.00;5095760;28;20051;-77
2022/03/01 04:10:54;;;;;;;14.23;6.67;;;;;;;-3.30;83.20;100260.50;5092916;28;20048;-77
2022/03/01 04:13:21;;;;;;;12.70;6.00;;;;;;;-3.31;82.94;100245.50;5102058;28;20054;-77
2022/03/01 04:15:47;;;;;;;14.20;5.87;;;;;;;-3.36;83.91;100250.16;5095991;28;20056;-77
2022/03/01 04:18:14;;;;;;;19.67;6.00;;;;;;;-3.28;84.60;100276.38;5095971;28;20058;-77
2022/03/01 04:20:42;;;;;;;14.20;7.00;;;;;;;-3.31;83.32;100258.78;5095724;28;20043;-77
2022/03/01 04:23:08;;;;;;;13.53;6.20;;;;;;;-3.45;83.61;100253.22;5105076;28;20048;-77
2022/03/01 04:25:35;;;;;;;18.83;6.50;;;;;;;-3.48;83.94;100256.03;5101004;28;20506;-77
2022/03/01 04:28:01;;;;;;;16.70;6.43;;;;;;;-3.47;83.63;100265.75;5095315;28;20052;-77
2022/03/01 04:30:28;;;;;;;14.03;6.00;;;;;;;-3.40;83.65;100288.47;5094638;28;20043;-77
2022/03/01 04:32:55;;;;;;;13.47;6.00;;;;;;;-3.48;84.57;100277.28;5103678;28;20051;-77
2022/03/01 04:35:22;;;;;;;17.37;6.40;;;;;;;-3.69;84.21;100268.47;5095732;28;20097;-77
2022/03/01 04:37:50;;;;;;;12.87;6.20;;;;;;;-3.69;85.17;100271.97;5095522;28;20044;-77
2022/03/01 04:40:18;;;;;;;12.93;6.50;;;;;;;-3.74;85.38;100256.25;5095347;28;20055;-77
2022/03/01 04:42:44;;;;;;;12.50;6.27;;;;;;;-3.70;84.69;100257.00;5097155;28;20040;-77
2022/03/01 04:45:11;;;;;;;12.50;6.57;;;;;;;-3.79;86.08;100250.28;5098732;28;20036;-77
2022/03/01 04:47:38;;;;;;;17.40;7.07;;;;;;;-3.72;85.82;100264.16;5094360;28;20048;-77
2022/03/01 04:50:06;;;;;;;11.53;6.00;;;;;;;-3.67;84.96;100259.50;5092845;28;20056;-77
2022/03/01 04:52:32;;;;;;;14.90;6.70;;;;;;;-3.59;83.88;100253.84;5095551;28;20135;-78
2022/03/01 04:55:00;;;;;;;13.77;6.47;;;;;;;-3.57;82.69;100247.53;5094410;28;20048;-79
2022/03/01 04:57:27;;;;;;;16.10;5.73;;;;;;;-3.49;82.44;100254.28;5085822;28;20139;-77
2022/03/01 04:59:54;;;;;;;16.13;6.50;;;;;;;-3.64;83.22;100246.09;5094901;28;20048;-78
2022/03/01 05:02:21;;;;;;;10.83;5.17;;;;;;;-3.69;83.78;100240.09;5094666;28;20052;-80
2022/03/01 05:04:47;;;;;;;17.33;6.40;;;;;;;-3.72;84.69;100247.34;5092084;28;20127;-77
2022/03/01 05:07:16;;;;;;;11.70;5.63;;;;;;;-3.67;83.98;100234.69;5092712;28;20108;-78
2022/03/01 05:09:43;;;;;;;32.10;6.43;;;;;;;-3.58;84.45;100227.19;5098113;28;20047;-75
2022/03/01 05:12:11;;;;;;;15.40;6.50;;;;;;;-3.52;84.59;100246.44;5091779;28;20052;-78
2022/03/01 05:14:37;;;;;;;14.93;5.43;;;;;;;-3.63;83.64;100234.53;5093018;27;20094;-78
2022/03/01 05:17:04;;;;;;;14.63;5.40;;;;;;;-3.65;84.07;100251.47;5094329;28;20048;-77
2022/03/01 05:19:31;;;;;;;17.47;6.50;;;;;;;-3.72;84.61;100255.31;5090191;28;20742;-77
2022/03/01 05:21:58;;;;;;;11.27;5.23;;;;;;;-3.87;85.79;100252.38;5094367;28;20062;-77
2022/03/01 05:24:24;;;;;;;16.67;6.90;;;;;;;-3.89;85.46;100248.09;5093658;28;20048;-77
2022/03/01 05:26:51;;;;;;;16.47;6.47;;;;;;;-3.98;85.60;100236.06;5093497;28;20047;-78
2022/03/01 05:29:19;;;;;;;12.13;6.77;;;;;;;-4.08;85.31;100238.22;5095455;28;20066;-78
2022/03/01 05:31:46;;;;;;;14.33;5.80;;;;;;;-4.09;85.67;100239.19;5090523;28;20048;-78
2022/03/01 05:34:12;;;;;;;16.07;6.40;;;;;;;-4.00;85.59;100257.38;5089827;28;20040;-78
2022/03/01 05:36:39;;;;;;;13.23;5.43;;;;;;;-4.18;86.12;100229.81;5091304;28;20058;-78
2022/03/01 05:39:06;;;;;;;15.47;6.57;;;;;;;-4.13;86.66;100237.59;5092024;28;20063;-78
2022/03/01 05:41:32;;;;;;;14.47;6.83;;;;;;;-4.24;87.71;100246.00;5092069;28;20048;-78
2022/03/01 05:43:59;;;;;;;14.37;5.90;;;;;;;-4.35;87.72;100229.66;5090202;28;20044;-78
2022/03/01 05:46:27;;;;;;;13.17;6.20;;;;;;;-4.18;86.76;100260.81;5092141;28;20055;-78
2022/03/01 05:48:53;;;;;;;16.30;7.00;;;;;;;-4.41;86.78;100240.53;5091781;28;20048;-78
2022/03/01 05:51:20;;;;;;;13.57;6.47;;;;;;;-4.37;86.29;100252.75;5086911;28;20443;-78
2022/03/01 05:53:47;;;;;;;14.73;6.43;;;;;;;-4.33;86.28;100259.66;5090825;28;20054;-79
2022/03/01 05:56:13;;;;;;;15.60;6.70;;;;;;;-4.38;87.65;100262.53;5088836;28;20040;-79
2022/03/01 05:58:40;;;;;;;14.63;6.53;;;;;;;-4.42;87.54;100255.59;5090958;28;20044;-79
2022/03/01 06:01:06;;;;;;;20.97;7.83;;;;;;;-4.40;87.38;100263.50;5091270;28;20048;-79
2022/03/01 06:03:34;;;;;;;14.23;6.10;;;;;;;-4.52;87.38;100259.56;5094684;28;20381;-79
2022/03/01 06:06:01;;;;;;;14.30;7.07;;;;;;;-4.28;86.48;100281.56;5092081;28;20051;-79
2022/03/01 06:08:28;;;;;;;12.10;6.83;;;;;;;-4.43;87.19;100261.81;5090862;28;20050;-79
2022/03/01 06:10:55;;;;;;;13.07;6.57;;;;;;;-4.43;87.39;100279.56;5091275;28;20059;-79
2022/03/01 06:13:21;;;;;;;11.97;6.13;;;;;;;-4.34;86.78;100288.00;5091071;28;20074;-78
2022/03/01 06:15:48;;;;;;;14.87;7.27;;;;;;;-4.38;86.78;100297.03;5091596;28;20055;-79
2022/03/01 06:18:15;;;;;;;15.63;6.53;;;;;;;-4.36;87.20;100291.66;5091951;28;20048;-79
2022/03/01 06:20:44;;;;;;;14.07;6.40;;;;;;;-4.55;88.24;100280.91;5096188;28;20463;-79
2022/03/01 06:23:11;;;;;;;16.58;6.63;;;;;;;-4.41;88.33;100297.16;5086081;28;20044;-79
2022/03/01 06:25:40;;;;;;;17.83;6.80;;;;;;;-4.48;88.86;100290.34;5087204;28;20257;-79
2022/03/01 06:28:07;;;;;;;16.67;6.60;;;;;;;-4.55;88.94;100276.44;5090378;28;20048;-79
2022/03/01 06:30:33;;;;;;;14.80;6.03;;;;;;;-4.52;89.82;100292.25;5087920;28;20044;-79
2022/03/01 06:33:00;;;;;;;14.90;6.13;;;;;;;-4.54;90.19;100280.00;5091413;28;20052;-79
2022/03/01 06:35:26;;;;;;;16.50;6.20;;;;;;;-4.45;88.71;100276.97;5090644;28;20047;-79
2022/03/01 06:37:54;;;;;;;11.53;6.10;;;;;;;-4.32;87.61;100278.19;5090184;28;20139;-79
2022/03/01 06:40:21;;;;;;;13.17;6.60;;;;;;;-3.98;85.72;100313.09;5089964;28;20055;-80
2022/03/01 06:42:48;;;;;;;17.57;6.80;;;;;;;-3.99;84.84;100287.47;5090060;28;20078;-80
2022/03/01 06:45:15;;;;;;;12.57;6.03;;;;;;;-3.89;84.15;100291.47;5090679;28;20059;-78
2022/03/01 06:47:42;;;;;;;13.10;5.70;;;;;;;-3.80;85.24;100311.47;5090531;28;20044;-78
2022/03/01 06:50:10;;;;;;;12.27;5.00;;;;;;;-3.84;84.39;100301.88;5089773;28;20052;-79
2022/03/01 06:52:37;;;;;;;13.73;6.23;;;;;;;-3.69;84.69;100330.44;5089199;28;20079;-79
2022/03/01 06:55:07;;;;;;;14.60;6.97;;;;;;;-3.54;83.52;100328.06;5088384;28;20125;-78
2022/03/01 06:57:34;;;;;;;13.77;6.37;;;;;;;-3.58;83.42;100309.59;5090329;28;20046;-78
2022/03/01 07:00:01;;;;;;;16.50;6.37;;;;;;;-3.53;83.93;100313.88;5090427;28;20056;-78
2022/03/01 07:02:28;;;;;;;12.77;6.30;;;;;;;-3.33;81.83;100321.81;5084860;28;20072;-78
2022/03/01 07:04:55;;;;;;;21.83;6.80;;;;;;;-3.02;78.21;100331.94;5088663;28;20067;-78
2022/03/01 07:07:23;;;;;;;14.93;5.57;;;;;;;-2.83;76.74;100314.25;5091613;28;20097;-78
2022/03/01 07:09:50;;;;;;;12.50;5.73;;;;;;;-2.65;76.25;100339.16;5082102;28;20057;-79
2022/03/01 07:12:18;;;;;;;18.30;6.60;;;;;;;-2.62;76.13;100337.22;5086844;28;20048;-79
2022/03/01 07:14:44;;;;;;;16.30;6.43;;;;;;;-2.52;75.96;100341.16;5097053;28;20066;-78
2022/03/01 07:17:11;;;;;;;12.00;5.57;;;;;;;-2.46;75.14;100331.19;5089905;28;20052;-78
2022/03/01 07:19:37;;;;;;;16.03;5.80;;;;;;;-2.46;74.76;100316.03;5090370;28;20044;-78
2022/03/01 07:22:04;;;;;;;13.77;6.13;;;;;;;-2.37;74.66;100341.38;5089461;28;20055;-78
2022/03/01 07:24:30;;;;;;;13.60;6.13;;;;;;;-2.36;75.60;100332.47;5085040;28;20056;-77
2022/03/01 07:26:57;;;;;;;12.87;6.17;;;;;;;-2.25;72.90;100340.78;5081464;28;20053;-78
2022/03/01 07:29:26;;;;;;;13.10;6.37;;;;;;;-2.08;74.28;100355.94;5081788;28;20128;-79
2022/03/01 07:31:53;;;;;;;12.47;5.37;;;;;;;-2.00;72.48;100360.91;5069528;28;20048;-79
2022/03/01 07:34:20;;;;;;;13.37;5.80;;;;;;;-2.09;72.53;100330.25;5087050;28;20456;-78
2022/03/01 07:36:46;;;;;;;14.57;6.47;;;;;;;-1.90;72.39;100353.31;5084370;28;20044;-78
2022/03/01 07:39:13;;;;;;;7.90;4.77;;;;;;;-1.92;70.46;100325.88;5079204;28;20048;-79
2022/03/01 07:41:39;;;;;;;13.20;6.90;;;;;;;-1.80;70.77;100333.25;5078557;28;20052;-78
2022/03/01 07:44:07;;;;;;;12.27;6.00;;;;;;;-1.71;71.37;100345.28;5082178;28;20048;-78
2022/03/01 07:46:35;;;;;;;12.37;5.57;;;;;;;-1.58;70.04;100349.03;5084610;28;20048;-78
2022/03/01 07:49:02;;;;;;;11.57;5.83;;;;;;;-1.46;68.83;100360.84;5084720;28;20052;-78
2022/03/01 07:51:28;;;;;;;14.47;5.73;;;;;;;-1.50;68.00;100336.16;5086070;28;20048;-78
2022/03/01 07:53:55;;;;;;;13.70;6.00;;;;;;;-1.27;68.39;100350.09;5080340;28;20082;-77
2022/03/01 07:56:22;;;;;;;14.33;5.87;;;;;;;-1.26;69.43;100347.34;5083892;28;20040;-77
2022/03/01 07:58:49;;;;;;;10.33;5.30;;;;;;;-1.13;67.85;100339.59;5088940;28;20430;-77
2022/03/01 08:01:16;;;;;;;12.27;6.43;;;;;;;-0.94;67.99;100354.59;5072356;28;20114;-78
2022/03/01 08:03:44;;;;;;;13.77;5.60;;;;;;;-0.89;67.18;100352.53;5079374;28;20036;-77
2022/03/01 08:06:10;;;;;;;14.07;5.90;;;;;;;-0.92;67.73;100326.91;5080216;28;20055;-77
2022/03/01 08:08:37;;;;;;;14.40;6.30;;;;;;;-0.77;63.62;100332.31;5087039;28;20115;-77
2022/03/01 08:11:04;;;;;;;14.47;6.17;;;;;;;-0.59;65.09;100349.16;5078382;28;20048;-77
2022/03/01 08:13:31;;;;;;;15.60;5.87;;;;;;;-0.56;66.01;100331.16;5083546;28;20076;-78
2022/03/01 08:15:58;;;;;;;15.03;6.53;;;;;;;-0.45;64.22;100325.22;5079891;28;20049;-78
2022/03/01 08:18:24;;;;;;;13.07;7.23;;;;;;;-0.37;62.97;100328.31;5082035;28;20078;-78
2022/03/01 08:20:52;;;;;;;13.10;6.07;;;;;;;-0.26;62.21;100326.84;5083296;28;20046;-77
2022/03/01 08:23:19;;;;;;;10.67;5.10;;;;;;;-0.34;62.97;100310.38;5083454;28;20557;-76
2022/03/01 08:25:46;;;;;;;14.33;6.40;;;;;;;-0.29;60.24;100319.84;5090990;28;20387;-78
2022/03/01 08:28:14;;;;;;;16.23;6.87;;;;;;;-0.28;61.66;100313.56;5080183;28;20045;-78
2022/03/01 08:30:41;;;;;;;15.97;6.50;;;;;;;-0.11;61.94;100317.94;5089570;28;20391;-77
2022/03/01 08:33:07;;;;;;;10.13;5.83;;;;;;;-0.08;61.25;100311.56;5094047;28;20048;-77
2022/03/01 08:35:34;;;;;;;10.67;5.33;;;;;;;-0.05;63.15;100298.00;5093783;28;20067;-77
2022/03/01 08:38:04;;;;;;;15.60;6.97;;;;;;;0.11;61.13;100306.84;5088607;28;20062;-77
2022/03/01 08:40:32;;;;;;;15.13;6.43;;;;;;;0.25;63.10;100323.91;5084677;28;20064;-77
2022/03/01 08:42:59;;;;;;;11.67;6.20;;;;;;;0.28;61.43;100327.25;5089457;28;20090;-77
2022/03/01 08:45:25;;;;;;;11.53;6.60;;;;;;;0.35;59.90;100323.28;5090937;28;20131;-76
2022/03/01 08:47:53;;;;;;;13.50;6.17;;;;;;;0.32;61.50;100311.91;5095318;28;20040;-76
2022/03/01 08:50:20;;;;;;;14.40;6.07;;;;;;;0.48;61.03;100322.53;5089621;28;20055;-76
2022/03/01 08:52:46;;;;;;;9.68;5.28;;;;;;;0.47;59.71;100315.47;5092952;28;20476;-76
2022/03/01 08:55:14;;;;;;;11.40;5.60;;;;;;;0.48;62.76;100298.44;5090008;28;20047;-78
2022/03/01 08:57:41;;;;;;;17.83;6.97;;;;;;;0.59;60.78;100309.38;5087975;28;20056;-78
2022/03/01 09:00:10;;;;;;;10.35;5.70;;;;;;;0.55;60.32;100305.16;5092083;28;20048;-78
2022/03/01 09:02:37;;;;;;;13.27;6.82;;;;;;;0.69;62.31;100310.56;5089613;28;20048;-77
2022/03/01 09:05:05;;;;;;;13.07;6.65;;;;;;;0.82;57.78;100297.25;5088840;28;20074;-77
2022/03/01 09:07:32;;;;;;;18.27;5.63;;;;;;;0.87;58.37;100305.00;5093802;28;20097;-77
2022/03/01 09:09:58;;;;;;;18.08;7.53;;;;;;;0.83;59.63;100295.47;5092009;28;20080;-78
2022/03/01 09:12:27;;;;;;;13.10;6.53;;;;;;;0.90;57.28;100285.22;5081042;28;20040;-78
2022/03/01 09:14:53;;;;;;;12.73;7.03;;;;;;;0.99;58.59;100285.47;5079807;28;20505;-78
2022/03/01 09:17:20;;;;;;;13.07;5.30;;;;;;;1.10;56.89;100289.31;5092611;28;20041;-78
2022/03/01 09:19:46;;;;;;;9.05;5.07;;;;;;;1.14;57.49;100266.75;5086798;28;20053;-77
2022/03/01 09:22:13;;;;;;;14.68;6.25;;;;;;;1.32;56.51;100270.06;5091840;28;20062;-78
2022/03/01 09:24:40;;;;;;;11.63;5.95;;;;;;;1.28;58.08;100265.84;5090968;28;20052;-78
2022/03/01 09:27:07;;;;;;;15.40;6.28;;;;;;;1.33;58.25;100267.28;5091611;28;20044;-78
2022/03/01 09:29:35;;;;;;;11.68;6.43;;;;;;;1.40;56.99;100268.63;5091204;28;20048;-78
2022/03/01 09:32:03;;;;;;;16.25;6.43;;;;;;;1.44;55.67;100265.75;5091028;28;20079;-78
2022/03/01 09:34:30;;;;;;;9.10;4.75;;;;;;;1.54;55.17;100267.72;5087569;28;20078;-78
2022/03/01 09:36:56;;;;;;;18.15;6.78;;;;;;;1.64;55.46;100253.69;5091764;28;20040;-78
2022/03/01 09:39:23;;;;;;;13.85;6.05;;;;;;;1.64;55.06;100251.03;5092338;28;20047;-78
2022/03/01 09:41:51;;;;;;;14.00;6.43;;;;;;;1.82;55.98;100247.13;5088385;28;20131;-78
2022/03/01 09:44:19;;;;;;;16.50;6.82;;;;;;;1.84;55.15;100252.41;5089578;28;20407;-78
2022/03/01 09:46:47;;;;;;;11.35;6.30;;;;;;;2.08;54.38;100247.22;5090291;28;20399;-78
2022/03/01 09:49:13;;;;;;;15.15;6.32;;;;;;;2.16;51.64;100252.06;5088172;28;20047;-78
2022/03/01 09:51:41;;;;;;;18.17;5.85;;;;;;;2.10;52.37;100256.00;5091579;28;20048;-77
2022/03/01 09:54:08;;;;;;;19.77;6.00;;;;;;;2.06;52.43;100249.13;5087460;28;20498;-78
2022/03/01 09:56:35;;;;;;;11.48;5.88;;;;;;;2.12;52.68;100233.47;5091981;28;20044;-78
2022/03/01 09:59:02;;;;;;;10.73;5.80;;;;;;;2.19;53.31;100239.28;5091646;28;20101;-78
2022/03/01 10:01:28;;;;;;;13.65;5.78;;;;;;;2.40;52.44;100254.88;5091558;28;20047;-78
2022/03/01 10:04:08;;;;;;;21.88;6.97;;;;;;;2.41;52.47;100240.47;5090744;28;20112;-78
2022/03/01 10:06:41;;;;;;;7.68;3.88;;;;;;;2.47;51.48;100232.03;5091516;28;20058;-78
2022/03/01 10:09:14;;;;;;;15.07;6.25;;;;;;;2.59;50.55;100251.75;5081771;28;20058;-78
2022/03/01 10:11:41;;;;;;;12.27;6.35;;;;;;;2.57;50.54;100238.44;5089922;28;20043;-78
2022/03/01 10:14:07;;;;;;;10.73;5.80;;;;;;;2.77;50.91;100242.44;5087399;28;20513;-78
2022/03/01 10:16:38;;;;;;;12.68;6.22;;;;;;;2.79;49.60;100234.25;5088867;28;20058;-78
2022/03/01 10:19:15;;;;;;;8.88;4.95;;;;;;;2.93;48.50;100241.34;5087974;28;20059;-78
2022/03/01 10:21:43;;;;;;;9.60;5.15;;;;;;;2.97;49.17;100245.53;5091403;28;20047;-78
2022/03/01 10:24:10;;;;;;;10.43;5.25;;;;;;;2.91;48.46;100222.63;5090901;28;20051;-78
2022/03/01 10:26:37;;;;;;;12.52;6.30;;;;;;;3.02;46.68;100235.28;5090093;28;20036;-78
2022/03/01 10:29:06;;;;;;;10.07;5.45;;;;;;;3.00;48.71;100238.09;5085704;28;20052;-78
2022/03/01 10:31:34;;;;;;;22.52;6.90;;;;;;;3.07;48.85;100227.78;5091175;28;20063;-78
2022/03/01 10:34:03;;;;;;;19.10;6.05;;;;;;;3.20;48.97;100227.72;5087973;28;20082;-78
2022/03/01 10:36:36;;;;;;;11.98;6.22;;;;;;;3.14;47.69;100217.44;5090765;28;20051;-78
2022/03/01 10:39:06;;;;;;;14.88;6.22;;;;;;;3.20;48.24;100200.88;5094031;28;20050;-78
2022/03/01 10:41:37;;;;;;;10.35;6.07;;;;;;;3.49;48.56;100225.63;5091272;28;20040;-78
2022/03/01 10:44:06;;;;;;;11.32;5.85;;;;;;;3.54;46.66;100223.44;5081400;28;20062;-78
2022/03/01 10:46:39;;;;;;;23.13;9.48;;;;;;;3.48;46.46;100204.22;5080804;28;20051;-78
2022/03/01 10:49:08;;;;;;;18.33;6.53;;;;;;;3.64;49.29;100231.66;5086692;28;20051;-79
2022/03/01 10:51:36;;;;;;;11.80;7.05;;;;;;;3.61;48.97;100222.97;5091036;28;20044;-79
2022/03/01 10:54:03;;;;;;;10.98;5.38;;;;;;;3.59;45.53;100212.31;5091315;28;20056;-78
2022/03/01 10:56:38;;;;;;;12.57;6.18;;;;;;;3.44;46.45;100202.72;5092959;28;20109;-78
2022/03/01 10:59:07;;;;;;;8.77;5.03;;;;;;;3.41;46.96;100209.19;5098510;28;20052;-78
2022/03/01 11:01:33;;;;;;;12.07;5.80;;;;;;;3.58;48.79;100207.91;5073931;28;20512;-79
2022/03/01 11:04:00;;;;;;;13.77;7.13;;;;;;;3.71;45.97;100215.94;5087774;28;20070;-78
2022/03/01 11:06:27;;;;;;;13.38;6.75;;;;;;;3.68;47.57;100221.56;5090450;28;20040;-78
2022/03/01 11:08:59;;;;;;;14.02;6.30;;;;;;;3.71;46.81;100221.31;5090244;28;20063;-79
2022/03/01 11:11:27;;;;;;;13.43;5.68;;;;;;;3.63;45.50;100191.44;5090264;28;20044;-78
2022/03/01 11:13:55;;;;;;;11.25;5.20;;;;;;;3.53;45.70;100200.19;5089824;28;20048;-78
2022/03/01 11:16:36;;;;;;;12.32;5.70;;;;;;;3.51;45.91;100220.13;5091123;28;20051;-78
2022/03/01 11:19:14;;;;;;;12.15;5.65;;;;;;;3.62;44.39;100193.28;5091635;28;20398;-79
2022/03/01 11:21:44;;;;;;;10.90;5.65;;;;;;;3.67;45.31;100196.50;5092619;28;20040;-78